Latest Coastal Weather Observations for Maria Island

IDT60701

Issued at 8:41 pm EST Saturday 30 May 2015 (issued every 10 minutes, with the page automatically refreshed every 10 minutes)

About coastal observations | Map of coastal stations | Coastal observations for TAS | Marine services | Other Formats
Station Details ID: 092124 Name: MARIA ISLAND (POINT LESUEUR) Lat: -42.66 Lon: 148.02 Height: 28.0 m
Data from the previous 72 hours. | See also: Recent months at Maria Island
Date/Time
EST
Temp

°C
Wind Pressure Rain
since 9am
mm
Weather Cloud Vis
km
Sea
Height
m
Swell
Dir
 
Speed
knots
Gust
knots
hPa Trend Height
m
Period
s
Dir
30/08:30pm 10.7 NNW 16 24 1002.0 - 0.0 - - - - - - -
30/08:00pm 10.8 NW 17 21 1001.9 - 0.0 - - - - - - -
30/07:30pm 11.0 NW 18 24 1002.2 - 0.0 - - - - - - -
30/07:00pm 11.3 NNW 18 24 1002.3 - 0.0 - - - - - - -
30/06:30pm 11.6 NNW 14 19 1002.2 - 0.0 - - - - - - -
30/06:00pm 11.5 NNW 7 11 1002.1 - 0.0 - - - - - - -
30/05:30pm 11.3 WNW 15 19 1001.8 - 0.0 - - - - - - -
30/05:16pm 11.3 WNW 18 29 1001.7 - 0.0 - - - - - - -
30/05:00pm 11.3 NW 18 28 1001.5 - 0.0 - - - - - - -
30/04:30pm 11.6 WNW 21 29 1001.5 - 0.0 - - - - - - -
30/04:19pm 12.1 WNW 18 29 1001.2 - 0.0 - - - - - - -
30/04:00pm 12.2 W 22 30 1000.9 - 0.0 - - - - - - -
30/03:30pm 12.5 WNW 18 26 1000.6 - 0.0 - - - - - - -
30/03:08pm 12.7 WNW 22 32 1000.4 - 0.0 - - - - - - -
30/03:00pm 12.6 WNW 24 32 1000.4 - 0.0 - - - - - - -
30/02:30pm 13.3 WNW 21 33 999.9 - 0.0 - - - - - - -
30/02:13pm 14.0 W 21 36 999.8 - 0.0 - - - - - - -
30/02:00pm 14.0 W 27 36 999.9 - 0.0 - - - - - - -
30/01:32pm 15.5 WNW 32 48 998.7 - 0.0 - - - - - - -
30/01:30pm 15.6 WNW 33 51 998.7 - 0.0 - - - - - - -
30/01:27pm 15.4 WNW 32 51 998.7 - 0.0 - - - - - - -
30/01:23pm 14.9 WNW 30 51 998.0 - 0.0 - - - - - - -
30/01:22pm 14.9 NW 28 51 997.9 - 0.0 - - - - - - -
30/01:19pm 15.5 NW 24 37 998.4 - 0.0 - - - - - - -
30/01:00pm 16.6 NW 23 31 998.0 - 0.0 - - - - - - -
30/12:38pm 16.0 NNW 23 37 997.7 - 0.0 - - - - - - -
30/12:30pm 15.8 NNW 23 27 997.9 - 0.0 - - - - - - -
30/12:00pm 15.6 NNW 23 29 998.8 - 0.0 - - - - - - -
30/11:30am 14.3 N 29 37 999.1 - 0.0 - - - - - - -
30/11:00am 14.2 N 30 37 1000.1 - 0.0 - - - - - - -
30/10:30am 13.8 N 29 37 1000.8 - 0.0 - - - - - - -
30/10:00am 13.5 N 28 34 1001.5 - 0.0 - - - - - - -
30/09:30am 12.9 N 26 29 1002.8 - 0.0 - - - - - - -
30/09:00am 11.9 N 24 29 1004.1 - 0.0 - - - - - - -
30/08:30am 11.8 N 22 28 1004.7 - 0.0 - - - - - - -
30/08:00am 11.6 N 25 29 1005.0 - 0.0 - - - - - - -
30/07:30am 11.4 N 22 26 1005.6 - 0.0 - - - - - - -
30/07:00am 11.3 N 24 28 1006.0 - 0.0 - - - - - - -
30/06:30am 11.2 N 21 25 1006.5 - 0.0 - - - - - - -
30/06:00am 11.2 N 22 26 1006.6 - 0.0 - - - - - - -
30/05:30am 11.3 NNW 24 28 1006.6 - 0.0 - - - - - - -
30/05:00am 11.4 NNW 21 23 1007.3 - 0.0 - - - - - - -
30/04:30am 11.3 NNW 23 27 1007.4 - 0.0 - - - - - - -
30/04:00am 11.1 NNW 25 28 1007.6 - 0.0 - - - - - - -
30/03:30am 11.1 NNW 26 32 1008.0 - 0.0 - - - - - - -
30/03:00am 10.9 NNW 26 31 1008.5 - 0.0 - - - - - - -
30/02:30am 10.9 NNW 23 27 1008.9 - 0.0 - - - - - - -
30/02:00am 10.6 NW 18 22 1009.4 - 0.0 - - - - - - -
30/01:30am 10.3 NW 16 19 1009.7 - 0.0 - - - - - - -
30/01:00am 10.4 NNW 23 26 1009.7 - 0.0 - - - - - - -
30/12:30am 10.3 NNW 15 18 1010.4 - 0.0 - - - - - - -
30/12:00am 10.4 NW 16 21 1010.6 - 0.0 - - - - - - -
 
Date/Time
EST
Temp

°C
Wind Pressure Rain
since 9am
mm
Weather Cloud Vis
km
Sea
Height
m
Swell
Dir
 
Speed
knots
Gust
knots
hPa Trend Height
m
Period
s
Dir
29/11:30pm 10.3 NNW 16 19 1010.8 - 0.0 - - - - - - -
29/11:00pm 10.4 NNW 15 18 1011.2 - 0.0 - - - - - - -
29/10:30pm 10.3 N 19 22 1011.2 - 0.0 - - - - - - -
29/10:00pm 10.4 N 20 23 1011.4 - 0.0 - - - - - - -
29/09:30pm 10.6 N 19 22 1011.7 - 0.0 - - - - - - -
29/09:00pm 10.8 N 19 24 1011.6 - 0.0 - - - - - - -
29/08:30pm 10.9 N 19 22 1011.7 - 0.0 - - - - - - -
29/08:00pm 11.0 N 19 23 1011.9 - 0.0 - - - - - - -
29/07:30pm 11.3 N 20 23 1011.8 - 0.0 - - - - - - -
29/07:00pm 11.4 N 19 22 1011.8 - 0.0 - - - - - - -
29/06:30pm 11.6 NNW 18 23 1011.7 - 0.0 - - - - - - -
29/06:00pm 11.7 NNW 18 22 1011.5 - 0.0 - - - - - - -
29/05:30pm 12.0 NNW 16 19 1011.8 - 0.0 - - - - - - -
29/05:00pm 12.0 NW 16 21 1011.6 - 0.0 - - - - - - -
29/04:30pm 12.1 NW 17 23 1011.7 - 0.0 - - - - - - -
29/04:00pm 12.3 WNW 15 19 1011.4 - 0.0 - - - - - - -
29/03:30pm 12.4 NW 16 20 1011.3 - 0.0 - - - - - - -
29/03:00pm 13.1 NW 15 19 1011.3 - 0.0 - - - - - - -
29/02:30pm 12.8 WNW 12 17 1011.2 - 0.0 - - - - - - -
29/02:00pm 12.7 NW 13 20 1011.3 - 0.0 - - - - - - -
29/01:30pm 12.9 WNW 19 26 1011.0 - 0.0 - - - - - - -
29/01:00pm 12.3 WNW 16 26 1011.1 - 0.0 - - - - - - -
29/12:59pm 12.3 WNW 16 26 1011.1 - 0.0 - - - - - - -
29/12:30pm 11.4 WNW 16 21 1011.3 - 0.0 - - - - - - -
29/12:00pm 11.8 WNW 14 20 1011.1 - 0.0 - - - - - - -
29/11:30am 11.1 NW 11 16 1011.5 - 0.0 - - - - - - -
29/11:00am 11.0 NW 12 18 1011.8 - 0.0 - - - - - - -
29/10:30am 10.2 NW 13 20 1011.8 - 0.0 - - - - - - -
29/10:00am 10.1 WNW 16 21 1011.6 - 0.0 - - - - - - -
29/09:30am 9.3 WNW 18 25 1011.4 - 0.0 - - - - - - -
29/09:00am 8.4 WNW 14 18 1011.6 - 1.0 - - - - - - -
29/08:30am 7.7 WNW 12 16 1011.2 - 1.0 - - - - - - -
29/08:00am 7.5 NW 11 19 1010.8 - 1.0 - - - - - - -
29/07:30am 7.3 NNW 10 17 1010.5 - 1.0 - - - - - - -
29/07:00am 7.5 NNW 13 21 1009.9 - 1.0 - - - - - - -
29/06:30am 6.8 NW 10 15 1009.6 - 1.0 - - - - - - -
29/06:00am 7.0 NW 10 16 1009.3 - 1.0 - - - - - - -
29/05:30am 7.4 WNW 18 25 1008.5 - 1.0 - - - - - - -
29/05:00am 7.7 WNW 18 26 1008.2 - 1.0 - - - - - - -
29/04:30am 8.1 WNW 24 31 1007.0 - 1.0 - - - - - - -
29/04:10am 8.3 WNW 27 37 1006.4 - 1.0 - - - - - - -
29/04:00am 8.4 WNW 26 33 1006.3 - 1.0 - - - - - - -
29/03:30am 8.9 WNW 26 32 1006.4 - 1.0 - - - - - - -
29/03:20am 8.7 WNW 21 33 1006.1 - 1.0 - - - - - - -
29/03:00am 8.8 WNW 21 27 1006.1 - 1.0 - - - - - - -
29/02:30am 8.9 WNW 23 30 1005.6 - 1.0 - - - - - - -
29/02:00am 9.4 WNW 25 34 1005.6 - 1.0 - - - - - - -
29/01:49am 9.9 WNW 28 38 1005.2 - 1.0 - - - - - - -
29/01:30am 10.2 WNW 26 32 1005.0 - 1.0 - - - - - - -
29/01:00am 10.4 WNW 24 31 1005.0 - 1.0 - - - - - - -
29/12:30am 10.7 NW 20 28 1005.4 - 1.0 - - - - - - -
29/12:00am 10.9 NW 18 23 1005.5 - 1.0 - - - - - - -
 
Date/Time
EST
Temp

°C
Wind Pressure Rain
since 9am
mm
Weather Cloud Vis
km
Sea
Height
m
Swell
Dir
 
Speed
knots
Gust
knots
hPa Trend Height
m
Period
s
Dir
28/11:30pm 11.0 NW 16 22 1005.5 - 1.0 - - - - - - -
28/11:00pm 11.4 NW 14 21 1005.4 - 1.0 - - - - - - -
28/10:30pm 11.4 NW 12 17 1005.5 - 1.0 - - - - - - -
28/10:00pm 11.5 NW 12 15 1005.6 - 1.0 - - - - - - -
28/09:30pm 11.8 NNW 11 17 1005.7 - 1.0 - - - - - - -
28/09:00pm 12.3 NW 13 19 1005.5 - 1.0 - - - - - - -
28/08:30pm 12.2 NNW 11 14 1005.5 - 1.0 - - - - - - -
28/08:00pm 12.0 NNW 11 17 1005.6 - 1.0 - - - - - - -
28/07:30pm 12.2 NW 10 15 1005.3 - 1.0 - - - - - - -
28/07:00pm 13.1 NNW 11 17 1005.0 - 1.0 - - - - - - -
28/06:30pm 13.1 NNW 12 15 1004.9 - 1.0 - - - - - - -
28/06:00pm 13.0 N 15 20 1004.5 - 1.0 Recent precip. - - - - - -
28/05:30pm 13.0 NNW 19 23 1004.5 - 0.8 - - - - - - -
28/05:00pm 14.0 N 25 29 1003.3 - 0.6 - - - - - - -
28/04:30pm 14.1 N 23 28 1003.6 - 0.6 - - - - - - -
28/04:00pm 14.4 N 25 29 1003.2 - 0.6 - - - - - - -
28/03:30pm 14.6 NNW 25 30 1002.8 - 0.6 - - - - - - -
28/03:00pm 14.8 N 25 30 1003.0 - 0.6 Recent precip. - - - - - -
28/02:30pm 14.4 NNW 26 31 1003.5 - 0.6 - - - - - - -
28/02:00pm 14.6 NNW 25 35 1004.1 - 0.0 - - - - - - -
28/01:30pm 15.1 NNW 22 27 1004.5 - 0.0 - - - - - - -
28/01:00pm 15.9 N 19 23 1005.6 - 0.0 - - - - - - -
28/12:30pm 16.3 N 23 27 1006.0 - 0.0 - - - - - - -
28/12:00pm 15.9 N 24 31 1006.2 - 0.0 - - - - - - -
28/11:46am 16.3 N 22 32 1006.5 - 0.0 - - - - - - -
28/11:30am 15.2 N 18 21 1007.1 - 0.0 - - - - - - -
28/11:00am 15.8 N 20 23 1008.0 - 0.0 - - - - - - -
28/10:30am 15.3 NNW 17 21 1008.5 - 0.0 - - - - - - -
28/10:00am 14.7 N 20 22 1008.7 - 0.0 - - - - - - -
28/09:30am 14.3 N 20 23 1009.0 - 0.0 - - - - - - -
28/09:00am 14.1 N 22 26 1008.9 - 0.0 - - - - - - -
28/08:30am 13.4 N 16 18 1009.3 - 0.0 - - - - - - -
28/08:00am 12.8 NNW 12 15 1009.7 - 0.0 - - - - - - -
28/07:30am 12.9 NNW 13 15 1009.7 - 0.0 - - - - - - -
28/07:00am 12.8 NNW 13 16 1009.7 - 0.0 - - - - - - -
28/06:30am 13.1 N 14 17 1009.7 - 0.0 - - - - - - -
28/06:00am 13.4 N 17 19 1009.4 - 0.0 - - - - - - -
28/05:30am 13.3 N 17 20 1009.2 - 0.0 - - - - - - -
28/05:00am 13.4 N 16 18 1009.5 - 0.0 - - - - - - -
28/04:30am 13.5 N 16 19 1010.1 - 0.0 - - - - - - -
28/04:00am 13.4 N 14 17 1010.3 - 0.0 - - - - - - -
28/03:30am 13.4 N 16 19 1010.4 - 0.0 - - - - - - -
28/03:00am 13.4 N 19 21 1010.3 - 0.0 - - - - - - -
28/02:30am 13.5 N 18 21 1010.7 - 0.0 - - - - - - -
28/02:00am 13.5 N 19 21 1010.8 - 0.0 - - - - - - -
28/01:30am 13.4 N 17 20 1010.9 - 0.0 - - - - - - -
28/01:00am 13.5 N 20 23 1011.3 - 0.0 - - - - - - -
28/12:30am 13.5 N 22 26 1011.2 - 0.0 - - - - - - -
28/12:00am 13.9 N 19 22 1011.5 - 0.0 - - - - - - -
 
Date/Time
EST
Temp

°C
Wind Pressure Rain
since 9am
mm
Weather Cloud Vis
km
Sea
Height
m
Swell
Dir
 
Speed
knots
Gust
knots
hPa Trend Height
m
Period
s
Dir
27/11:30pm 13.7 N 19 23 1011.5 - 0.0 - - - - - - -
27/11:00pm 13.9 N 21 24 1011.6 - 0.0 - - - - - - -
27/10:30pm 14.1 N 20 23 1011.9 - 0.0 - - - - - - -
27/10:00pm 13.4 N 17 22 1012.3 - 0.0 - - - - - - -
27/09:30pm 13.6 N 18 22 1012.4 - 0.0 - - - - - - -
27/09:00pm 13.8 N 20 23 1012.2 - 0.0 - - - - - - -

Other Formats:

Comma delimited format used in spreadsheet applications
http://www.bom.gov.au/fwo/IDT60701/IDT60701.95988.axf

JavaScript Object Notation format (JSON) in row-major order
http://www.bom.gov.au/fwo/IDT60701/IDT60701.95988.json